sensor_id;sensor_type;location;lat;lon;timestamp;P1;durP1;ratioP1;P2;durP2;ratioP2
76348;SDS011;65172;46.764;15.406;2023-05-07T08:04:37;4.60;;;3.30;;
76348;SDS011;65172;46.764;15.406;2023-05-07T08:07:03;3.40;;;2.95;;
76348;SDS011;65172;46.764;15.406;2023-05-07T08:09:29;3.58;;;2.75;;
76348;SDS011;65172;46.764;15.406;2023-05-07T08:11:54;4.15;;;3.15;;
76348;SDS011;65172;46.764;15.406;2023-05-07T08:14:20;4.90;;;3.10;;
76348;SDS011;65172;46.764;15.406;2023-05-07T08:16:45;3.20;;;2.90;;
76348;SDS011;65172;46.764;15.406;2023-05-07T08:19:11;4.20;;;3.70;;
76348;SDS011;65172;46.764;15.406;2023-05-07T08:21:38;4.43;;;2.95;;
76348;SDS011;65172;46.764;15.406;2023-05-07T08:24:04;4.50;;;2.70;;
76348;SDS011;65172;46.764;15.406;2023-05-07T08:26:30;2.50;;;2.30;;
76348;SDS011;65172;46.764;15.406;2023-05-07T08:28:56;4.10;;;2.53;;
76348;SDS011;65172;46.764;15.406;2023-05-07T08:31:21;5.20;;;2.72;;
76348;SDS011;65172;46.764;15.406;2023-05-07T08:33:47;3.80;;;2.70;;
76348;SDS011;65172;46.764;15.406;2023-05-07T08:36:12;3.95;;;2.30;;
76348;SDS011;65172;46.764;15.406;2023-05-07T08:38:38;3.70;;;2.50;;
76348;SDS011;65172;46.764;15.406;2023-05-07T08:41:05;3.35;;;2.25;;
76348;SDS011;65172;46.764;15.406;2023-05-07T08:43:32;5.15;;;2.20;;
76348;SDS011;65172;46.764;15.406;2023-05-07T08:45:58;2.55;;;2.25;;
76348;SDS011;65172;46.764;15.406;2023-05-07T08:48:26;5.07;;;3.15;;
76348;SDS011;65172;46.764;15.406;2023-05-07T08:50:52;3.20;;;2.22;;
76348;SDS011;65172;46.764;15.406;2023-05-07T09:32:12;8.87;;;4.73;;
76348;SDS011;65172;46.764;15.406;2023-05-07T09:34:40;4.43;;;3.20;;
76348;SDS011;65172;46.764;15.406;2023-05-07T09:37:06;3.10;;;2.80;;
76348;SDS011;65172;46.764;15.406;2023-05-07T09:39:42;4.13;;;3.25;;
76348;SDS011;65172;46.764;15.406;2023-05-07T09:42:08;4.95;;;3.03;;
76348;SDS011;65172;46.764;15.406;2023-05-07T09:44:35;3.65;;;2.88;;
76348;SDS011;65172;46.764;15.406;2023-05-07T09:47:01;4.75;;;2.50;;
76348;SDS011;65172;46.764;15.406;2023-05-07T09:49:33;4.20;;;3.22;;
76348;SDS011;65172;46.764;15.406;2023-05-07T09:52:02;3.97;;;3.22;;
76348;SDS011;65172;46.764;15.406;2023-05-07T09:54:28;4.15;;;3.28;;
76348;SDS011;65172;46.764;15.406;2023-05-07T09:56:54;5.00;;;3.30;;
76348;SDS011;65172;46.764;15.406;2023-05-07T09:59:20;3.53;;;3.10;;
76348;SDS011;65172;46.764;15.406;2023-05-07T10:01:46;4.13;;;3.60;;
76348;SDS011;65172;46.764;15.406;2023-05-07T10:04:12;5.45;;;2.67;;
76348;SDS011;65172;46.764;15.406;2023-05-07T10:06:38;3.00;;;2.80;;
76348;SDS011;65172;46.764;15.406;2023-05-07T10:09:04;4.35;;;2.97;;
76348;SDS011;65172;46.764;15.406;2023-05-07T10:11:31;4.13;;;3.35;;
76348;SDS011;65172;46.764;15.406;2023-05-07T10:13:59;3.95;;;3.53;;
76348;SDS011;65172;46.764;15.406;2023-05-07T10:16:27;3.50;;;3.20;;
76348;SDS011;65172;46.764;15.406;2023-05-07T10:18:55;4.40;;;3.58;;
76348;SDS011;65172;46.764;15.406;2023-05-07T10:21:22;4.30;;;3.63;;
76348;SDS011;65172;46.764;15.406;2023-05-07T10:23:58;8.57;;;4.50;;
76348;SDS011;65172;46.764;15.406;2023-05-07T10:26:27;8.70;;;5.63;;
76348;SDS011;65172;46.764;15.406;2023-05-07T10:28:56;5.10;;;3.67;;
76348;SDS011;65172;46.764;15.406;2023-05-07T10:34:17;3.72;;;3.42;;
76348;SDS011;65172;46.764;15.406;2023-05-07T10:36:47;4.57;;;3.60;;
76348;SDS011;65172;46.764;15.406;2023-05-07T10:39:13;5.47;;;4.22;;
76348;SDS011;65172;46.764;15.406;2023-05-07T10:41:39;6.28;;;3.70;;
76348;SDS011;65172;46.764;15.406;2023-05-07T10:44:04;3.80;;;3.40;;
76348;SDS011;65172;46.764;15.406;2023-05-07T10:46:30;4.18;;;3.60;;
76348;SDS011;65172;46.764;15.406;2023-05-07T10:51:26;4.25;;;3.28;;
76348;SDS011;65172;46.764;15.406;2023-05-07T10:56:50;5.15;;;3.47;;
76348;SDS011;65172;46.764;15.406;2023-05-07T11:01:58;4.60;;;3.28;;
76348;SDS011;65172;46.764;15.406;2023-05-07T11:04:27;7.28;;;3.75;;
76348;SDS011;65172;46.764;15.406;2023-05-07T11:12:32;5.65;;;3.25;;
76348;SDS011;65172;46.764;15.406;2023-05-07T11:15:03;4.25;;;3.58;;
76348;SDS011;65172;46.764;15.406;2023-05-07T11:17:33;4.00;;;3.08;;
76348;SDS011;65172;46.764;15.406;2023-05-07T11:20:01;6.10;;;4.05;;
76348;SDS011;65172;46.764;15.406;2023-05-07T11:24:55;5.25;;;3.60;;
76348;SDS011;65172;46.764;15.406;2023-05-07T11:27:25;4.35;;;3.78;;
76348;SDS011;65172;46.764;15.406;2023-05-07T11:29:51;8.02;;;3.80;;
76348;SDS011;65172;46.764;15.406;2023-05-07T11:32:23;4.28;;;3.88;;
76348;SDS011;65172;46.764;15.406;2023-05-07T11:34:57;4.53;;;3.75;;
76348;SDS011;65172;46.764;15.406;2023-05-07T11:37:24;4.60;;;3.83;;
76348;SDS011;65172;46.764;15.406;2023-05-07T11:39:51;4.40;;;4.00;;
76348;SDS011;65172;46.764;15.406;2023-05-07T11:42:29;5.80;;;4.47;;
76348;SDS011;65172;46.764;15.406;2023-05-07T11:44:55;5.40;;;4.05;;
76348;SDS011;65172;46.764;15.406;2023-05-07T11:47:21;6.22;;;3.78;;
76348;SDS011;65172;46.764;15.406;2023-05-07T11:49:50;4.70;;;4.30;;
76348;SDS011;65172;46.764;15.406;2023-05-07T11:52:19;4.60;;;4.07;;
76348;SDS011;65172;46.764;15.406;2023-05-07T11:54:49;6.30;;;4.47;;
76348;SDS011;65172;46.764;15.406;2023-05-07T11:57:16;5.38;;;4.45;;
76348;SDS011;65172;46.764;15.406;2023-05-07T11:59:42;4.82;;;4.32;;
76348;SDS011;65172;46.764;15.406;2023-05-07T12:02:09;4.55;;;4.15;;
76348;SDS011;65172;46.764;15.406;2023-05-07T12:04:35;5.93;;;4.80;;
76348;SDS011;65172;46.764;15.406;2023-05-07T12:07:00;4.45;;;4.05;;
76348;SDS011;65172;46.764;15.406;2023-05-07T12:09:26;5.97;;;4.15;;
76348;SDS011;65172;46.764;15.406;2023-05-07T12:11:52;5.75;;;4.45;;
76348;SDS011;65172;46.764;15.406;2023-05-07T12:14:18;5.88;;;4.25;;
76348;SDS011;65172;46.764;15.406;2023-05-07T12:16:45;5.43;;;4.43;;
76348;SDS011;65172;46.764;15.406;2023-05-07T12:19:10;5.03;;;4.57;;
76348;SDS011;65172;46.764;15.406;2023-05-07T12:21:39;5.88;;;4.57;;
76348;SDS011;65172;46.764;15.406;2023-05-07T12:24:05;4.53;;;4.13;;
76348;SDS011;65172;46.764;15.406;2023-05-07T12:26:31;7.63;;;4.80;;
76348;SDS011;65172;46.764;15.406;2023-05-07T12:28:57;5.32;;;4.82;;
76348;SDS011;65172;46.764;15.406;2023-05-07T12:31:25;4.88;;;4.25;;
76348;SDS011;65172;46.764;15.406;2023-05-07T12:33:51;5.03;;;4.50;;
76348;SDS011;65172;46.764;15.406;2023-05-07T12:36:16;13.40;;;4.63;;
76348;SDS011;65172;46.764;15.406;2023-05-07T12:38:42;4.95;;;4.53;;
76348;SDS011;65172;46.764;15.406;2023-05-07T12:41:08;6.93;;;4.20;;
76348;SDS011;65172;46.764;15.406;2023-05-07T12:43:35;7.03;;;4.13;;
76348;SDS011;65172;46.764;15.406;2023-05-07T12:46:01;5.18;;;4.68;;
76348;SDS011;65172;46.764;15.406;2023-05-07T12:48:29;6.28;;;4.60;;
76348;SDS011;65172;46.764;15.406;2023-05-07T12:50:55;6.78;;;4.50;;
76348;SDS011;65172;46.764;15.406;2023-05-07T12:53:25;5.25;;;4.75;;
76348;SDS011;65172;46.764;15.406;2023-05-07T12:55:53;5.10;;;4.60;;
76348;SDS011;65172;46.764;15.406;2023-05-07T13:00:52;7.15;;;4.53;;
76348;SDS011;65172;46.764;15.406;2023-05-07T13:03:21;7.43;;;4.30;;
76348;SDS011;65172;46.764;15.406;2023-05-07T13:05:49;5.13;;;4.63;;
76348;SDS011;65172;46.764;15.406;2023-05-07T13:08:25;4.78;;;4.38;;
76348;SDS011;65172;46.764;15.406;2023-05-07T13:10:55;4.38;;;3.97;;
76348;SDS011;65172;46.764;15.406;2023-05-07T13:13:22;4.70;;;4.30;;
76348;SDS011;65172;46.764;15.406;2023-05-07T13:15:47;8.00;;;4.50;;
76348;SDS011;65172;46.764;15.406;2023-05-07T13:18:13;6.20;;;4.53;;
76348;SDS011;65172;46.764;15.406;2023-05-07T13:20:39;7.68;;;4.63;;
76348;SDS011;65172;46.764;15.406;2023-05-07T13:23:04;5.63;;;4.15;;
76348;SDS011;65172;46.764;15.406;2023-05-07T13:25:30;5.78;;;4.72;;
76348;SDS011;65172;46.764;15.406;2023-05-07T13:27:58;4.80;;;4.40;;
76348;SDS011;65172;46.764;15.406;2023-05-07T13:30:24;4.47;;;4.03;;
76348;SDS011;65172;46.764;15.406;2023-05-07T13:32:51;6.05;;;4.35;;
76348;SDS011;65172;46.764;15.406;2023-05-07T13:35:17;4.50;;;4.10;;
76348;SDS011;65172;46.764;15.406;2023-05-07T13:37:42;5.03;;;4.43;;
76348;SDS011;65172;46.764;15.406;2023-05-07T13:40:08;7.07;;;5.03;;
76348;SDS011;65172;46.764;15.406;2023-05-07T13:42:34;5.03;;;4.53;;
76348;SDS011;65172;46.764;15.406;2023-05-07T13:45:00;4.78;;;4.28;;
76348;SDS011;65172;46.764;15.406;2023-05-07T13:47:25;6.00;;;4.72;;
76348;SDS011;65172;46.764;15.406;2023-05-07T13:49:51;5.75;;;5.18;;
76348;SDS011;65172;46.764;15.406;2023-05-07T13:52:17;4.75;;;4.28;;
76348;SDS011;65172;46.764;15.406;2023-05-07T13:54:42;6.00;;;5.03;;
76348;SDS011;65172;46.764;15.406;2023-05-07T13:57:08;6.22;;;4.85;;
76348;SDS011;65172;46.764;15.406;2023-05-07T13:59:34;5.07;;;4.57;;
76348;SDS011;65172;46.764;15.406;2023-05-07T14:01:59;5.07;;;4.63;;
76348;SDS011;65172;46.764;15.406;2023-05-07T14:04:25;6.75;;;4.85;;
76348;SDS011;65172;46.764;15.406;2023-05-07T14:06:51;6.63;;;4.75;;
76348;SDS011;65172;46.764;15.406;2023-05-07T14:09:16;6.85;;;4.50;;
76348;SDS011;65172;46.764;15.406;2023-05-07T14:11:42;10.50;;;4.65;;
76348;SDS011;65172;46.764;15.406;2023-05-07T14:14:08;6.22;;;4.78;;
76348;SDS011;65172;46.764;15.406;2023-05-07T14:16:35;6.43;;;5.25;;
76348;SDS011;65172;46.764;15.406;2023-05-07T14:19:02;6.22;;;4.75;;
76348;SDS011;65172;46.764;15.406;2023-05-07T14:21:27;5.82;;;4.93;;
76348;SDS011;65172;46.764;15.406;2023-05-07T14:23:53;8.75;;;5.18;;
76348;SDS011;65172;46.764;15.406;2023-05-07T14:26:18;5.20;;;4.72;;
76348;SDS011;65172;46.764;15.406;2023-05-07T14:28:44;9.75;;;5.50;;
76348;SDS011;65172;46.764;15.406;2023-05-07T14:31:11;9.15;;;5.22;;
76348;SDS011;65172;46.764;15.406;2023-05-07T14:33:37;9.15;;;5.22;;
76348;SDS011;65172;46.764;15.406;2023-05-07T14:36:03;4.95;;;4.30;;
76348;SDS011;65172;46.764;15.406;2023-05-07T14:38:28;5.72;;;5.13;;
76348;SDS011;65172;46.764;15.406;2023-05-07T14:40:55;5.45;;;4.88;;
76348;SDS011;65172;46.764;15.406;2023-05-07T14:43:21;7.63;;;4.25;;
76348;SDS011;65172;46.764;15.406;2023-05-07T14:45:47;6.10;;;3.95;;
76348;SDS011;65172;46.764;15.406;2023-05-07T14:48:12;3.92;;;3.17;;
76348;SDS011;65172;46.764;15.406;2023-05-07T14:50:43;4.15;;;3.00;;
76348;SDS011;65172;46.764;15.406;2023-05-07T14:53:08;4.18;;;2.42;;
76348;SDS011;65172;46.764;15.406;2023-05-07T14:55:34;6.18;;;2.08;;
76348;SDS011;65172;46.764;15.406;2023-05-07T14:58:00;2.08;;;1.80;;
76348;SDS011;65172;46.764;15.406;2023-05-07T15:00:26;4.88;;;2.25;;
76348;SDS011;65172;46.764;15.406;2023-05-07T15:02:51;5.22;;;2.85;;
76348;SDS011;65172;46.764;15.406;2023-05-07T15:05:17;8.60;;;3.40;;
76348;SDS011;65172;46.764;15.406;2023-05-07T15:07:44;5.28;;;4.18;;
76348;SDS011;65172;46.764;15.406;2023-05-07T15:10:09;7.65;;;4.68;;
76348;SDS011;65172;46.764;15.406;2023-05-07T15:12:35;6.38;;;4.68;;
76348;SDS011;65172;46.764;15.406;2023-05-07T15:15:01;7.90;;;5.20;;
76348;SDS011;65172;46.764;15.406;2023-05-07T15:17:26;9.02;;;5.57;;
76348;SDS011;65172;46.764;15.406;2023-05-07T15:19:52;9.75;;;6.68;;
76348;SDS011;65172;46.764;15.406;2023-05-07T15:22:17;10.43;;;5.50;;
76348;SDS011;65172;46.764;15.406;2023-05-07T15:24:43;10.27;;;5.53;;
76348;SDS011;65172;46.764;15.406;2023-05-07T15:27:10;6.18;;;4.45;;
76348;SDS011;65172;46.764;15.406;2023-05-07T15:29:35;10.20;;;5.30;;
76348;SDS011;65172;46.764;15.406;2023-05-07T15:32:02;12.90;;;5.25;;
76348;SDS011;65172;46.764;15.406;2023-05-07T15:34:27;8.82;;;5.13;;
76348;SDS011;65172;46.764;15.406;2023-05-07T15:36:53;7.13;;;5.70;;
76348;SDS011;65172;46.764;15.406;2023-05-07T15:39:20;12.77;;;5.95;;
76348;SDS011;65172;46.764;15.406;2023-05-07T15:41:45;8.95;;;6.55;;
76348;SDS011;65172;46.764;15.406;2023-05-07T15:44:11;8.77;;;6.07;;
76348;SDS011;65172;46.764;15.406;2023-05-07T15:46:36;11.27;;;5.85;;
76348;SDS011;65172;46.764;15.406;2023-05-07T15:49:02;9.48;;;6.40;;
76348;SDS011;65172;46.764;15.406;2023-05-07T15:51:29;8.63;;;4.97;;
76348;SDS011;65172;46.764;15.406;2023-05-07T15:53:55;10.63;;;5.32;;
76348;SDS011;65172;46.764;15.406;2023-05-07T15:56:21;13.93;;;4.82;;
76348;SDS011;65172;46.764;15.406;2023-05-07T15:58:46;9.23;;;4.80;;
